sensor_id;sensor_type;location;lat;lon;timestamp;P1;durP1;ratioP1;P2;durP2;ratioP2
63807;SDS011;49961;43.970;22.868;2023-06-10T00:00:26;6.07;;;4.30;;
63807;SDS011;49961;43.970;22.868;2023-06-10T00:01:27;5.87;;;4.17;;
63807;SDS011;49961;43.970;22.868;2023-06-10T00:02:28;10.03;;;4.40;;
63807;SDS011;49961;43.970;22.868;2023-06-10T00:03:29;6.20;;;4.20;;
63807;SDS011;49961;43.970;22.868;2023-06-10T00:04:29;7.47;;;4.60;;
63807;SDS011;49961;43.970;22.868;2023-06-10T00:05:30;6.57;;;4.90;;
63807;SDS011;49961;43.970;22.868;2023-06-10T00:06:31;6.03;;;4.63;;
63807;SDS011;49961;43.970;22.868;2023-06-10T00:07:40;8.00;;;4.07;;
63807;SDS011;49961;43.970;22.868;2023-06-10T00:08:41;7.90;;;4.50;;
63807;SDS011;49961;43.970;22.868;2023-06-10T00:09:42;9.03;;;5.40;;
63807;SDS011;49961;43.970;22.868;2023-06-10T00:10:42;7.00;;;5.10;;
63807;SDS011;49961;43.970;22.868;2023-06-10T00:11:43;7.23;;;4.67;;
63807;SDS011;49961;43.970;22.868;2023-06-10T00:12:43;5.77;;;4.40;;
63807;SDS011;49961;43.970;22.868;2023-06-10T00:13:43;6.53;;;4.63;;
63807;SDS011;49961;43.970;22.868;2023-06-10T00:14:44;6.43;;;4.57;;
63807;SDS011;49961;43.970;22.868;2023-06-10T00:15:45;7.27;;;4.73;;
63807;SDS011;49961;43.970;22.868;2023-06-10T00:16:45;6.00;;;4.53;;
63807;SDS011;49961;43.970;22.868;2023-06-10T00:17:46;9.77;;;4.30;;
63807;SDS011;49961;43.970;22.868;2023-06-10T00:18:46;12.47;;;5.00;;
63807;SDS011;49961;43.970;22.868;2023-06-10T00:19:47;8.03;;;4.80;;
63807;SDS011;49961;43.970;22.868;2023-06-10T00:20:47;10.10;;;5.10;;
63807;SDS011;49961;43.970;22.868;2023-06-10T00:21:52;7.93;;;5.03;;
63807;SDS011;49961;43.970;22.868;2023-06-10T00:22:53;6.87;;;4.83;;
63807;SDS011;49961;43.970;22.868;2023-06-10T00:23:54;10.53;;;4.90;;
63807;SDS011;49961;43.970;22.868;2023-06-10T00:24:55;10.00;;;4.93;;
63807;SDS011;49961;43.970;22.868;2023-06-10T00:25:59;7.23;;;5.10;;
63807;SDS011;49961;43.970;22.868;2023-06-10T00:27:00;9.83;;;4.87;;
63807;SDS011;49961;43.970;22.868;2023-06-10T00:28:00;11.03;;;4.73;;
63807;SDS011;49961;43.970;22.868;2023-06-10T00:29:01;8.33;;;4.67;;
63807;SDS011;49961;43.970;22.868;2023-06-10T00:30:05;9.37;;;5.10;;
63807;SDS011;49961;43.970;22.868;2023-06-10T00:31:06;6.97;;;4.57;;
63807;SDS011;49961;43.970;22.868;2023-06-10T00:32:07;8.17;;;4.93;;
63807;SDS011;49961;43.970;22.868;2023-06-10T00:33:08;6.47;;;4.63;;
63807;SDS011;49961;43.970;22.868;2023-06-10T00:34:08;6.60;;;4.47;;
63807;SDS011;49961;43.970;22.868;2023-06-10T00:35:09;7.17;;;4.70;;
63807;SDS011;49961;43.970;22.868;2023-06-10T00:36:10;5.37;;;4.53;;
63807;SDS011;49961;43.970;22.868;2023-06-10T00:37:10;5.10;;;4.30;;
63807;SDS011;49961;43.970;22.868;2023-06-10T00:38:12;10.43;;;4.77;;
63807;SDS011;49961;43.970;22.868;2023-06-10T00:39:14;7.20;;;4.63;;
63807;SDS011;49961;43.970;22.868;2023-06-10T00:40:15;7.43;;;4.13;;
63807;SDS011;49961;43.970;22.868;2023-06-10T00:41:15;9.13;;;4.90;;
63807;SDS011;49961;43.970;22.868;2023-06-10T00:42:16;6.90;;;4.70;;
63807;SDS011;49961;43.970;22.868;2023-06-10T00:43:16;8.10;;;4.80;;
63807;SDS011;49961;43.970;22.868;2023-06-10T00:44:16;7.90;;;4.77;;
63807;SDS011;49961;43.970;22.868;2023-06-10T00:45:17;6.37;;;4.50;;
63807;SDS011;49961;43.970;22.868;2023-06-10T00:46:17;7.33;;;4.90;;
63807;SDS011;49961;43.970;22.868;2023-06-10T00:47:18;7.83;;;5.00;;
63807;SDS011;49961;43.970;22.868;2023-06-10T00:48:19;5.33;;;4.40;;
63807;SDS011;49961;43.970;22.868;2023-06-10T00:49:20;6.30;;;4.60;;
63807;SDS011;49961;43.970;22.868;2023-06-10T00:50:20;7.60;;;4.97;;
63807;SDS011;49961;43.970;22.868;2023-06-10T00:51:21;6.07;;;4.77;;
63807;SDS011;49961;43.970;22.868;2023-06-10T00:52:22;6.43;;;4.87;;
63807;SDS011;49961;43.970;22.868;2023-06-10T00:53:27;8.07;;;5.03;;
63807;SDS011;49961;43.970;22.868;2023-06-10T00:54:28;7.97;;;4.77;;
63807;SDS011;49961;43.970;22.868;2023-06-10T00:55:29;7.17;;;4.93;;
63807;SDS011;49961;43.970;22.868;2023-06-10T00:56:29;7.57;;;4.50;;
63807;SDS011;49961;43.970;22.868;2023-06-10T00:57:30;7.90;;;4.63;;
63807;SDS011;49961;43.970;22.868;2023-06-10T00:58:30;8.07;;;4.60;;
63807;SDS011;49961;43.970;22.868;2023-06-10T00:59:31;8.40;;;4.50;;
63807;SDS011;49961;43.970;22.868;2023-06-10T01:00:32;11.10;;;4.77;;
63807;SDS011;49961;43.970;22.868;2023-06-10T01:01:32;10.00;;;5.20;;
63807;SDS011;49961;43.970;22.868;2023-06-10T01:02:34;8.97;;;4.83;;
63807;SDS011;49961;43.970;22.868;2023-06-10T01:03:35;7.63;;;5.10;;
63807;SDS011;49961;43.970;22.868;2023-06-10T01:04:36;9.47;;;4.80;;
63807;SDS011;49961;43.970;22.868;2023-06-10T01:05:38;6.50;;;4.80;;
63807;SDS011;49961;43.970;22.868;2023-06-10T01:07:24;9.50;;;4.97;;
63807;SDS011;49961;43.970;22.868;2023-06-10T01:09:41;6.73;;;5.13;;
63807;SDS011;49961;43.970;22.868;2023-06-10T01:11:06;8.80;;;4.93;;
63807;SDS011;49961;43.970;22.868;2023-06-10T01:12:19;8.57;;;5.20;;
63807;SDS011;49961;43.970;22.868;2023-06-10T01:13:28;7.40;;;5.07;;
63807;SDS011;49961;43.970;22.868;2023-06-10T01:14:29;6.07;;;4.70;;
63807;SDS011;49961;43.970;22.868;2023-06-10T01:15:31;7.00;;;5.10;;
63807;SDS011;49961;43.970;22.868;2023-06-10T01:16:33;5.80;;;5.20;;
63807;SDS011;49961;43.970;22.868;2023-06-10T01:17:37;7.47;;;4.90;;
63807;SDS011;49961;43.970;22.868;2023-06-10T01:18:54;7.13;;;4.80;;
63807;SDS011;49961;43.970;22.868;2023-06-10T01:19:55;8.13;;;5.00;;
63807;SDS011;49961;43.970;22.868;2023-06-10T01:20:56;6.63;;;5.13;;
63807;SDS011;49961;43.970;22.868;2023-06-10T01:21:57;7.77;;;5.47;;
63807;SDS011;49961;43.970;22.868;2023-06-10T01:23:00;9.77;;;5.50;;
63807;SDS011;49961;43.970;22.868;2023-06-10T01:24:02;8.47;;;5.10;;
63807;SDS011;49961;43.970;22.868;2023-06-10T01:25:03;7.60;;;5.27;;
63807;SDS011;49961;43.970;22.868;2023-06-10T01:26:07;6.83;;;5.10;;
63807;SDS011;49961;43.970;22.868;2023-06-10T01:27:12;6.67;;;5.07;;
63807;SDS011;49961;43.970;22.868;2023-06-10T01:28:24;7.10;;;4.90;;
63807;SDS011;49961;43.970;22.868;2023-06-10T01:29:33;6.67;;;4.90;;
63807;SDS011;49961;43.970;22.868;2023-06-10T01:32:09;7.10;;;5.13;;
63807;SDS011;49961;43.970;22.868;2023-06-10T01:33:25;9.80;;;5.03;;
63807;SDS011;49961;43.970;22.868;2023-06-10T01:34:28;8.23;;;5.17;;
63807;SDS011;49961;43.970;22.868;2023-06-10T01:35:32;6.90;;;4.60;;
63807;SDS011;49961;43.970;22.868;2023-06-10T01:36:33;10.43;;;4.87;;
63807;SDS011;49961;43.970;22.868;2023-06-10T01:37:35;15.63;;;5.73;;
63807;SDS011;49961;43.970;22.868;2023-06-10T01:38:47;7.87;;;4.47;;
63807;SDS011;49961;43.970;22.868;2023-06-10T01:39:50;7.63;;;4.80;;
63807;SDS011;49961;43.970;22.868;2023-06-10T01:40:51;6.77;;;5.00;;
63807;SDS011;49961;43.970;22.868;2023-06-10T01:41:53;5.90;;;4.73;;
63807;SDS011;49961;43.970;22.868;2023-06-10T01:42:54;7.17;;;5.03;;
63807;SDS011;49961;43.970;22.868;2023-06-10T01:43:54;7.90;;;5.00;;
63807;SDS011;49961;43.970;22.868;2023-06-10T01:44:55;6.83;;;5.10;;
63807;SDS011;49961;43.970;22.868;2023-06-10T01:45:55;6.23;;;4.63;;
63807;SDS011;49961;43.970;22.868;2023-06-10T01:46:56;9.27;;;5.00;;
63807;SDS011;49961;43.970;22.868;2023-06-10T01:47:56;9.73;;;5.20;;
63807;SDS011;49961;43.970;22.868;2023-06-10T01:48:56;8.70;;;5.37;;
63807;SDS011;49961;43.970;22.868;2023-06-10T01:49:57;7.90;;;4.80;;
63807;SDS011;49961;43.970;22.868;2023-06-10T01:50:57;8.07;;;4.93;;
63807;SDS011;49961;43.970;22.868;2023-06-10T01:51:58;7.43;;;4.87;;
63807;SDS011;49961;43.970;22.868;2023-06-10T01:52:59;8.43;;;4.57;;
63807;SDS011;49961;43.970;22.868;2023-06-10T01:53:59;7.00;;;5.00;;
63807;SDS011;49961;43.970;22.868;2023-06-10T01:55:00;7.40;;;4.50;;
63807;SDS011;49961;43.970;22.868;2023-06-10T01:56:00;10.60;;;5.50;;
63807;SDS011;49961;43.970;22.868;2023-06-10T01:57:01;13.10;;;4.90;;
63807;SDS011;49961;43.970;22.868;2023-06-10T01:58:01;9.60;;;5.33;;
63807;SDS011;49961;43.970;22.868;2023-06-10T01:59:02;10.00;;;5.00;;
63807;SDS011;49961;43.970;22.868;2023-06-10T02:00:03;9.93;;;5.00;;
63807;SDS011;49961;43.970;22.868;2023-06-10T02:01:03;7.83;;;4.83;;
63807;SDS011;49961;43.970;22.868;2023-06-10T02:02:04;8.30;;;5.30;;
63807;SDS011;49961;43.970;22.868;2023-06-10T02:03:05;8.20;;;4.77;;
63807;SDS011;49961;43.970;22.868;2023-06-10T02:04:05;5.47;;;4.90;;
63807;SDS011;49961;43.970;22.868;2023-06-10T02:05:06;6.67;;;4.90;;
63807;SDS011;49961;43.970;22.868;2023-06-10T02:06:07;12.93;;;5.20;;
63807;SDS011;49961;43.970;22.868;2023-06-10T02:07:07;8.10;;;4.90;;
63807;SDS011;49961;43.970;22.868;2023-06-10T02:08:07;5.50;;;4.53;;
63807;SDS011;49961;43.970;22.868;2023-06-10T02:09:08;7.70;;;4.77;;
63807;SDS011;49961;43.970;22.868;2023-06-10T02:10:08;9.53;;;4.90;;
63807;SDS011;49961;43.970;22.868;2023-06-10T02:11:09;9.47;;;5.07;;
63807;SDS011;49961;43.970;22.868;2023-06-10T02:12:09;9.80;;;5.23;;
63807;SDS011;49961;43.970;22.868;2023-06-10T02:13:10;9.87;;;5.20;;
63807;SDS011;49961;43.970;22.868;2023-06-10T02:14:10;7.80;;;4.87;;
63807;SDS011;49961;43.970;22.868;2023-06-10T02:15:11;12.30;;;5.20;;
63807;SDS011;49961;43.970;22.868;2023-06-10T02:16:11;9.13;;;5.10;;
63807;SDS011;49961;43.970;22.868;2023-06-10T02:17:12;8.83;;;5.00;;
63807;SDS011;49961;43.970;22.868;2023-06-10T02:18:14;5.23;;;4.63;;
63807;SDS011;49961;43.970;22.868;2023-06-10T02:19:15;7.90;;;4.40;;
63807;SDS011;49961;43.970;22.868;2023-06-10T02:20:15;10.30;;;4.77;;
63807;SDS011;49961;43.970;22.868;2023-06-10T02:21:16;10.87;;;5.37;;
63807;SDS011;49961;43.970;22.868;2023-06-10T02:22:16;8.93;;;5.10;;
63807;SDS011;49961;43.970;22.868;2023-06-10T02:23:16;10.27;;;4.73;;
63807;SDS011;49961;43.970;22.868;2023-06-10T02:24:17;9.57;;;5.50;;
63807;SDS011;49961;43.970;22.868;2023-06-10T02:25:18;10.47;;;5.70;;
63807;SDS011;49961;43.970;22.868;2023-06-10T02:26:18;7.13;;;5.20;;
63807;SDS011;49961;43.970;22.868;2023-06-10T02:27:20;8.40;;;5.00;;
63807;SDS011;49961;43.970;22.868;2023-06-10T02:28:21;9.53;;;5.90;;
63807;SDS011;49961;43.970;22.868;2023-06-10T02:29:21;11.40;;;5.27;;
63807;SDS011;49961;43.970;22.868;2023-06-10T02:30:22;13.43;;;5.43;;
63807;SDS011;49961;43.970;22.868;2023-06-10T02:31:22;8.50;;;5.50;;
63807;SDS011;49961;43.970;22.868;2023-06-10T02:32:24;10.20;;;5.73;;
63807;SDS011;49961;43.970;22.868;2023-06-10T02:33:25;7.83;;;5.20;;
63807;SDS011;49961;43.970;22.868;2023-06-10T02:34:27;12.30;;;5.30;;
63807;SDS011;49961;43.970;22.868;2023-06-10T02:35:27;9.07;;;5.33;;
63807;SDS011;49961;43.970;22.868;2023-06-10T02:36:28;7.67;;;5.57;;
63807;SDS011;49961;43.970;22.868;2023-06-10T02:37:28;13.70;;;5.27;;
63807;SDS011;49961;43.970;22.868;2023-06-10T02:38:28;15.87;;;5.90;;
63807;SDS011;49961;43.970;22.868;2023-06-10T02:39:29;9.47;;;4.73;;
63807;SDS011;49961;43.970;22.868;2023-06-10T02:40:29;8.57;;;5.60;;
63807;SDS011;49961;43.970;22.868;2023-06-10T02:41:30;9.67;;;5.20;;
63807;SDS011;49961;43.970;22.868;2023-06-10T02:42:30;10.13;;;4.97;;
63807;SDS011;49961;43.970;22.868;2023-06-10T02:43:30;8.27;;;5.00;;
63807;SDS011;49961;43.970;22.868;2023-06-10T02:44:31;10.97;;;5.23;;
63807;SDS011;49961;43.970;22.868;2023-06-10T02:45:31;6.53;;;4.97;;
63807;SDS011;49961;43.970;22.868;2023-06-10T02:46:32;11.47;;;5.30;;
63807;SDS011;49961;43.970;22.868;2023-06-10T02:47:32;10.90;;;5.07;;
63807;SDS011;49961;43.970;22.868;2023-06-10T02:48:33;9.43;;;5.17;;
63807;SDS011;49961;43.970;22.868;2023-06-10T02:49:40;8.63;;;5.17;;
63807;SDS011;49961;43.970;22.868;2023-06-10T02:50:41;10.20;;;5.13;;
63807;SDS011;49961;43.970;22.868;2023-06-10T02:51:41;12.23;;;5.37;;
63807;SDS011;49961;43.970;22.868;2023-06-10T02:52:42;8.60;;;5.53;;
63807;SDS011;49961;43.970;22.868;2023-06-10T02:53:42;8.77;;;4.87;;
63807;SDS011;49961;43.970;22.868;2023-06-10T02:54:42;8.47;;;4.97;;
63807;SDS011;49961;43.970;22.868;2023-06-10T02:55:43;8.73;;;5.03;;
63807;SDS011;49961;43.970;22.868;2023-06-10T02:56:44;10.40;;;4.50;;
63807;SDS011;49961;43.970;22.868;2023-06-10T02:57:44;8.23;;;5.07;;
63807;SDS011;49961;43.970;22.868;2023-06-10T02:58:44;10.03;;;4.80;;
63807;SDS011;49961;43.970;22.868;2023-06-10T02:59:45;12.00;;;4.80;;
63807;SDS011;49961;43.970;22.868;2023-06-10T03:00:46;11.80;;;5.10;;
63807;SDS011;49961;43.970;22.868;2023-06-10T03:01:47;12.13;;;5.43;;
63807;SDS011;49961;43.970;22.868;2023-06-10T03:02:47;12.90;;;5.50;;
63807;SDS011;49961;43.970;22.868;2023-06-10T03:03:48;10.57;;;5.20;;
63807;SDS011;49961;43.970;22.868;2023-06-10T03:04:50;12.80;;;5.30;;
63807;SDS011;49961;43.970;22.868;2023-06-10T03:05:50;9.57;;;5.10;;
63807;SDS011;49961;43.970;22.868;2023-06-10T03:06:51;9.60;;;5.40;;
63807;SDS011;49961;43.970;22.868;2023-06-10T03:07:51;8.80;;;5.33;;
63807;SDS011;49961;43.970;22.868;2023-06-10T03:08:52;6.90;;;4.80;;
63807;SDS011;49961;43.970;22.868;2023-06-10T03:09:52;12.83;;;5.07;;
63807;SDS011;49961;43.970;22.868;2023-06-10T03:10:53;11.17;;;5.60;;
63807;SDS011;49961;43.970;22.868;2023-06-10T03:11:53;11.80;;;6.23;;
63807;SDS011;49961;43.970;22.868;2023-06-10T03:12:53;12.83;;;5.33;;
63807;SDS011;49961;43.970;22.868;2023-06-10T03:13:54;11.87;;;5.30;;
63807;SDS011;49961;43.970;22.868;2023-06-10T03:14:55;11.73;;;5.33;;
63807;SDS011;49961;43.970;22.868;2023-06-10T03:15:55;13.27;;;5.60;;
63807;SDS011;49961;43.970;22.868;2023-06-10T03:16:56;9.97;;;5.70;;
63807;SDS011;49961;43.970;22.868;2023-06-10T03:17:57;13.47;;;5.57;;
63807;SDS011;49961;43.970;22.868;2023-06-10T03:18:57;12.43;;;5.23;;
63807;SDS011;49961;43.970;22.868;2023-06-10T03:19:59;12.67;;;5.50;;
63807;SDS011;49961;43.970;22.868;2023-06-10T03:20:59;14.23;;;5.10;;
63807;SDS011;49961;43.970;22.868;2023-06-10T03:22:07;11.00;;;5.30;;
63807;SDS011;49961;43.970;22.868;2023-06-10T03:23:09;15.40;;;5.30;;
63807;SDS011;49961;43.970;22.868;2023-06-10T03:24:09;13.13;;;4.90;;
63807;SDS011;49961;43.970;22.868;2023-06-10T03:25:10;8.33;;;4.60;;
63807;SDS011;49961;43.970;22.868;2023-06-10T03:26:13;13.90;;;5.03;;
63807;SDS011;49961;43.970;22.868;2023-06-10T03:27:15;16.43;;;5.00;;
63807;SDS011;49961;43.970;22.868;2023-06-10T03:28:16;15.67;;;4.80;;
63807;SDS011;49961;43.970;22.868;2023-06-10T03:29:16;8.67;;;4.63;;
63807;SDS011;49961;43.970;22.868;2023-06-10T03:30:17;13.20;;;5.20;;
63807;SDS011;49961;43.970;22.868;2023-06-10T03:31:17;13.90;;;4.50;;
63807;SDS011;49961;43.970;22.868;2023-06-10T03:32:18;16.93;;;5.03;;
63807;SDS011;49961;43.970;22.868;2023-06-10T03:33:18;7.43;;;4.40;;
63807;SDS011;49961;43.970;22.868;2023-06-10T03:34:19;10.40;;;4.73;;
63807;SDS011;49961;43.970;22.868;2023-06-10T03:35:20;11.90;;;4.37;;
63807;SDS011;49961;43.970;22.868;2023-06-10T03:36:20;11.17;;;4.40;;
63807;SDS011;49961;43.970;22.868;2023-06-10T03:37:21;8.13;;;4.70;;
63807;SDS011;49961;43.970;22.868;2023-06-10T03:38:21;9.27;;;4.23;;
63807;SDS011;49961;43.970;22.868;2023-06-10T03:39:22;15.60;;;4.80;;
63807;SDS011;49961;43.970;22.868;2023-06-10T03:40:23;17.23;;;4.63;;
63807;SDS011;49961;43.970;22.868;2023-06-10T03:41:23;11.23;;;4.87;;
63807;SDS011;49961;43.970;22.868;2023-06-10T03:42:25;11.57;;;4.53;;
63807;SDS011;49961;43.970;22.868;2023-06-10T03:43:25;13.10;;;4.50;;
63807;SDS011;49961;43.970;22.868;2023-06-10T03:44:27;11.07;;;4.50;;
63807;SDS011;49961;43.970;22.868;2023-06-10T03:45:28;13.07;;;4.77;;
63807;SDS011;49961;43.970;22.868;2023-06-10T03:46:28;11.23;;;4.60;;
63807;SDS011;49961;43.970;22.868;2023-06-10T03:47:33;15.03;;;5.00;;
63807;SDS011;49961;43.970;22.868;2023-06-10T03:48:37;14.77;;;4.57;;
63807;SDS011;49961;43.970;22.868;2023-06-10T03:49:38;11.73;;;4.87;;
63807;SDS011;49961;43.970;22.868;2023-06-10T03:50:40;9.80;;;4.37;;
63807;SDS011;49961;43.970;22.868;2023-06-10T03:51:40;9.40;;;4.13;;
63807;SDS011;49961;43.970;22.868;2023-06-10T03:52:41;14.00;;;4.20;;
63807;SDS011;49961;43.970;22.868;2023-06-10T03:53:41;11.00;;;4.30;;
63807;SDS011;49961;43.970;22.868;2023-06-10T03:54:42;14.37;;;4.13;;
63807;SDS011;49961;43.970;22.868;2023-06-10T03:55:42;12.77;;;4.17;;
63807;SDS011;49961;43.970;22.868;2023-06-10T03:56:43;11.90;;;4.60;;
63807;SDS011;49961;43.970;22.868;2023-06-10T03:57:44;7.47;;;4.10;;
63807;SDS011;49961;43.970;22.868;2023-06-10T03:58:44;14.57;;;4.53;;
63807;SDS011;49961;43.970;22.868;2023-06-10T03:59:45;10.10;;;4.20;;
63807;SDS011;49961;43.970;22.868;2023-06-10T04:00:45;10.73;;;3.90;;
63807;SDS011;49961;43.970;22.868;2023-06-10T04:01:47;10.90;;;3.97;;
63807;SDS011;49961;43.970;22.868;2023-06-10T04:02:47;11.33;;;4.23;;
63807;SDS011;49961;43.970;22.868;2023-06-10T04:03:52;12.53;;;4.63;;
63807;SDS011;49961;43.970;22.868;2023-06-10T04:04:54;8.90;;;4.17;;
63807;SDS011;49961;43.970;22.868;2023-06-10T04:05:54;8.93;;;3.87;;
63807;SDS011;49961;43.970;22.868;2023-06-10T04:06:55;12.93;;;4.63;;
63807;SDS011;49961;43.970;22.868;2023-06-10T04:07:55;13.00;;;4.30;;
63807;SDS011;49961;43.970;22.868;2023-06-10T04:08:56;10.43;;;4.60;;
63807;SDS011;49961;43.970;22.868;2023-06-10T04:09:57;13.40;;;4.90;;
63807;SDS011;49961;43.970;22.868;2023-06-10T04:10:57;10.20;;;4.60;;
63807;SDS011;49961;43.970;22.868;2023-06-10T04:11:58;12.40;;;4.30;;
63807;SDS011;49961;43.970;22.868;2023-06-10T04:12:58;16.53;;;5.00;;
63807;SDS011;49961;43.970;22.868;2023-06-10T04:13:59;14.10;;;4.43;;
63807;SDS011;49961;43.970;22.868;2023-06-10T04:15:00;13.13;;;3.90;;
63807;SDS011;49961;43.970;22.868;2023-06-10T04:16:00;14.07;;;4.73;;
63807;SDS011;49961;43.970;22.868;2023-06-10T04:17:01;8.53;;;4.30;;
63807;SDS011;49961;43.970;22.868;2023-06-10T04:18:02;7.90;;;4.13;;
63807;SDS011;49961;43.970;22.868;2023-06-10T04:19:03;9.80;;;4.13;;
63807;SDS011;49961;43.970;22.868;2023-06-10T04:20:03;12.00;;;4.37;;
63807;SDS011;49961;43.970;22.868;2023-06-10T04:21:06;8.47;;;3.87;;
63807;SDS011;49961;43.970;22.868;2023-06-10T04:22:07;8.27;;;4.50;;
63807;SDS011;49961;43.970;22.868;2023-06-10T04:23:07;10.80;;;4.20;;
63807;SDS011;49961;43.970;22.868;2023-06-10T04:24:07;11.53;;;4.37;;
63807;SDS011;49961;43.970;22.868;2023-06-10T04:25:09;13.73;;;4.60;;
63807;SDS011;49961;43.970;22.868;2023-06-10T04:26:09;11.03;;;4.07;;
63807;SDS011;49961;43.970;22.868;2023-06-10T04:27:12;14.53;;;4.93;;
63807;SDS011;49961;43.970;22.868;2023-06-10T04:28:12;9.23;;;4.57;;
63807;SDS011;49961;43.970;22.868;2023-06-10T04:29:13;11.13;;;4.80;;
63807;SDS011;49961;43.970;22.868;2023-06-10T04:30:13;7.93;;;4.17;;
63807;SDS011;49961;43.970;22.868;2023-06-10T04:31:15;9.13;;;4.30;;
63807;SDS011;49961;43.970;22.868;2023-06-10T04:32:16;11.07;;;4.27;;
63807;SDS011;49961;43.970;22.868;2023-06-10T04:33:16;12.00;;;4.53;;
63807;SDS011;49961;43.970;22.868;2023-06-10T04:34:17;10.37;;;4.20;;
63807;SDS011;49961;43.970;22.868;2023-06-10T04:35:17;16.73;;;4.90;;
63807;SDS011;49961;43.970;22.868;2023-06-10T04:36:18;12.33;;;4.70;;
63807;SDS011;49961;43.970;22.868;2023-06-10T04:37:18;11.40;;;5.00;;
63807;SDS011;49961;43.970;22.868;2023-06-10T04:38:19;8.67;;;4.80;;
63807;SDS011;49961;43.970;22.868;2023-06-10T04:39:19;10.17;;;5.13;;
63807;SDS011;49961;43.970;22.868;2023-06-10T04:40:19;9.17;;;4.37;;
63807;SDS011;49961;43.970;22.868;2023-06-10T04:41:20;13.77;;;4.83;;
63807;SDS011;49961;43.970;22.868;2023-06-10T04:42:22;8.20;;;4.53;;
63807;SDS011;49961;43.970;22.868;2023-06-10T04:43:22;9.77;;;4.33;;
63807;SDS011;49961;43.970;22.868;2023-06-10T04:44:23;10.97;;;4.63;;
63807;SDS011;49961;43.970;22.868;2023-06-10T04:45:23;10.57;;;4.43;;
63807;SDS011;49961;43.970;22.868;2023-06-10T04:46:24;11.00;;;4.80;;
63807;SDS011;49961;43.970;22.868;2023-06-10T04:47:25;8.07;;;3.87;;
63807;SDS011;49961;43.970;22.868;2023-06-10T04:48:26;10.03;;;4.77;;
63807;SDS011;49961;43.970;22.868;2023-06-10T04:49:27;9.50;;;4.00;;
63807;SDS011;49961;43.970;22.868;2023-06-10T04:50:28;7.97;;;3.80;;
63807;SDS011;49961;43.970;22.868;2023-06-10T04:51:29;6.23;;;4.07;;
63807;SDS011;49961;43.970;22.868;2023-06-10T04:52:29;8.43;;;3.73;;
63807;SDS011;49961;43.970;22.868;2023-06-10T04:53:30;7.07;;;3.63;;
63807;SDS011;49961;43.970;22.868;2023-06-10T04:54:30;6.07;;;3.30;;
63807;SDS011;49961;43.970;22.868;2023-06-10T04:55:32;7.43;;;3.80;;
63807;SDS011;49961;43.970;22.868;2023-06-10T04:56:34;8.63;;;3.63;;
63807;SDS011;49961;43.970;22.868;2023-06-10T04:57:34;7.10;;;3.73;;
63807;SDS011;49961;43.970;22.868;2023-06-10T04:58:35;5.07;;;3.43;;
63807;SDS011;49961;43.970;22.868;2023-06-10T04:59:35;9.83;;;3.70;;
63807;SDS011;49961;43.970;22.868;2023-06-10T05:00:38;5.93;;;3.20;;
63807;SDS011;49961;43.970;22.868;2023-06-10T05:01:38;7.90;;;3.23;;
63807;SDS011;49961;43.970;22.868;2023-06-10T05:02:38;8.40;;;3.60;;
63807;SDS011;49961;43.970;22.868;2023-06-10T05:03:39;6.53;;;3.57;;
63807;SDS011;49961;43.970;22.868;2023-06-10T05:04:39;3.73;;;3.23;;
63807;SDS011;49961;43.970;22.868;2023-06-10T05:05:40;7.13;;;3.50;;
63807;SDS011;49961;43.970;22.868;2023-06-10T05:06:40;5.13;;;3.47;;
63807;SDS011;49961;43.970;22.868;2023-06-10T05:07:41;7.90;;;3.73;;
63807;SDS011;49961;43.970;22.868;2023-06-10T05:08:41;7.57;;;4.17;;
63807;SDS011;49961;43.970;22.868;2023-06-10T05:09:41;7.97;;;3.30;;
63807;SDS011;49961;43.970;22.868;2023-06-10T05:10:42;7.43;;;3.80;;
63807;SDS011;49961;43.970;22.868;2023-06-10T05:11:42;10.50;;;3.70;;
63807;SDS011;49961;43.970;22.868;2023-06-10T05:12:43;8.70;;;4.67;;
63807;SDS011;49961;43.970;22.868;2023-06-10T05:13:43;9.33;;;3.90;;
63807;SDS011;49961;43.970;22.868;2023-06-10T05:14:44;8.60;;;3.70;;
63807;SDS011;49961;43.970;22.868;2023-06-10T05:15:45;9.43;;;3.70;;
63807;SDS011;49961;43.970;22.868;2023-06-10T05:16:46;6.60;;;3.60;;
63807;SDS011;49961;43.970;22.868;2023-06-10T05:17:50;9.47;;;3.87;;
63807;SDS011;49961;43.970;22.868;2023-06-10T05:18:51;6.67;;;3.87;;
63807;SDS011;49961;43.970;22.868;2023-06-10T05:19:52;7.30;;;4.00;;
63807;SDS011;49961;43.970;22.868;2023-06-10T05:20:53;7.53;;;3.63;;
63807;SDS011;49961;43.970;22.868;2023-06-10T05:21:56;7.03;;;3.67;;
63807;SDS011;49961;43.970;22.868;2023-06-10T05:22:56;8.67;;;3.80;;
63807;SDS011;49961;43.970;22.868;2023-06-10T05:23:56;8.87;;;3.40;;
63807;SDS011;49961;43.970;22.868;2023-06-10T05:24:57;8.37;;;3.53;;
63807;SDS011;49961;43.970;22.868;2023-06-10T05:25:57;8.13;;;3.80;;
63807;SDS011;49961;43.970;22.868;2023-06-10T05:26:58;6.23;;;3.70;;
63807;SDS011;49961;43.970;22.868;2023-06-10T05:27:59;6.17;;;3.63;;
63807;SDS011;49961;43.970;22.868;2023-06-10T05:28:59;7.87;;;3.40;;
63807;SDS011;49961;43.970;22.868;2023-06-10T05:30:00;6.27;;;3.30;;
63807;SDS011;49961;43.970;22.868;2023-06-10T05:31:01;8.60;;;3.63;;
63807;SDS011;49961;43.970;22.868;2023-06-10T05:32:01;5.97;;;3.13;;
63807;SDS011;49961;43.970;22.868;2023-06-10T05:33:03;5.23;;;3.47;;
63807;SDS011;49961;43.970;22.868;2023-06-10T05:34:04;6.10;;;3.40;;
63807;SDS011;49961;43.970;22.868;2023-06-10T05:35:05;7.10;;;3.67;;
63807;SDS011;49961;43.970;22.868;2023-06-10T05:36:06;5.00;;;3.50;;
63807;SDS011;49961;43.970;22.868;2023-06-10T05:37:06;6.20;;;3.60;;
63807;SDS011;49961;43.970;22.868;2023-06-10T05:38:07;9.83;;;3.80;;
63807;SDS011;49961;43.970;22.868;2023-06-10T05:39:08;7.07;;;3.80;;
63807;SDS011;49961;43.970;22.868;2023-06-10T05:40:09;5.40;;;3.53;;
63807;SDS011;49961;43.970;22.868;2023-06-10T05:41:10;4.67;;;3.53;;
63807;SDS011;49961;43.970;22.868;2023-06-10T05:42:11;9.10;;;3.40;;
63807;SDS011;49961;43.970;22.868;2023-06-10T05:43:11;6.20;;;3.33;;
63807;SDS011;49961;43.970;22.868;2023-06-10T05:44:12;6.77;;;3.70;;
63807;SDS011;49961;43.970;22.868;2023-06-10T05:45:12;9.63;;;3.60;;
63807;SDS011;49961;43.970;22.868;2023-06-10T05:46:12;7.10;;;3.57;;
63807;SDS011;49961;43.970;22.868;2023-06-10T05:47:13;7.57;;;3.93;;
63807;SDS011;49961;43.970;22.868;2023-06-10T05:48:13;6.23;;;3.90;;
63807;SDS011;49961;43.970;22.868;2023-06-10T05:49:14;9.00;;;3.57;;
63807;SDS011;49961;43.970;22.868;2023-06-10T05:50:14;5.53;;;3.70;;
63807;SDS011;49961;43.970;22.868;2023-06-10T05:51:15;8.90;;;3.30;;
63807;SDS011;49961;43.970;22.868;2023-06-10T05:52:15;8.53;;;3.60;;
63807;SDS011;49961;43.970;22.868;2023-06-10T05:53:16;4.73;;;3.17;;
63807;SDS011;49961;43.970;22.868;2023-06-10T05:54:17;4.87;;;3.53;;
63807;SDS011;49961;43.970;22.868;2023-06-10T05:55:17;6.90;;;3.57;;
63807;SDS011;49961;43.970;22.868;2023-06-10T05:56:18;6.33;;;2.83;;
63807;SDS011;49961;43.970;22.868;2023-06-10T05:57:18;6.83;;;3.37;;
63807;SDS011;49961;43.970;22.868;2023-06-10T05:58:19;5.00;;;2.87;;
63807;SDS011;49961;43.970;22.868;2023-06-10T05:59:20;8.60;;;3.60;;
63807;SDS011;49961;43.970;22.868;2023-06-10T06:00:22;6.47;;;3.33;;
63807;SDS011;49961;43.970;22.868;2023-06-10T06:01:23;4.20;;;3.03;;
63807;SDS011;49961;43.970;22.868;2023-06-10T06:02:23;6.20;;;3.20;;
63807;SDS011;49961;43.970;22.868;2023-06-10T06:03:25;6.07;;;3.00;;
63807;SDS011;49961;43.970;22.868;2023-06-10T06:04:25;4.87;;;2.93;;
63807;SDS011;49961;43.970;22.868;2023-06-10T06:05:25;4.00;;;2.80;;